MLA weather

Malta International Airport
Valletta, Luqa, Malta

Public forecast

Using degrees Celsius for public forecast. Weather courtesy of forecast.io.

Current aviation weather report (METAR) for Malta International Airport

Retrieved 2019/10/17 01:15 UTC (6 minutes ago):

LMML 170115Z 34007KT CAVOK 19/15 Q1019 NOSIG

Aviation forecast (TAF) for Malta International Airport

Retrieved 2019-10-17 00:44 UTC (37 minutes ago):

TAF LMML 162300Z 1700/1724 32012KT 9999 FEW020